sensor_id;sensor_type;location;lat;lon;timestamp;P1;durP1;ratioP1;P2;durP2;ratioP2
71038;SDS011;58692;43.212;27.908;2022-12-10T00:00:54;42.72;;;17.98;;
71038;SDS011;58692;43.212;27.908;2022-12-10T00:03:19;36.40;;;17.10;;
71038;SDS011;58692;43.212;27.908;2022-12-10T00:05:45;39.70;;;16.67;;
71038;SDS011;58692;43.212;27.908;2022-12-10T00:08:10;41.22;;;17.80;;
71038;SDS011;58692;43.212;27.908;2022-12-10T00:10:38;41.97;;;17.90;;
71038;SDS011;58692;43.212;27.908;2022-12-10T00:13:05;41.58;;;16.65;;
71038;SDS011;58692;43.212;27.908;2022-12-10T00:15:30;36.13;;;18.17;;
71038;SDS011;58692;43.212;27.908;2022-12-10T00:17:58;38.50;;;16.08;;
71038;SDS011;58692;43.212;27.908;2022-12-10T00:20:24;39.80;;;17.37;;
71038;SDS011;58692;43.212;27.908;2022-12-10T00:22:49;42.73;;;17.67;;
71038;SDS011;58692;43.212;27.908;2022-12-10T00:25:15;39.75;;;17.65;;
71038;SDS011;58692;43.212;27.908;2022-12-10T00:27:41;35.85;;;16.92;;
71038;SDS011;58692;43.212;27.908;2022-12-10T00:30:07;43.37;;;18.00;;
71038;SDS011;58692;43.212;27.908;2022-12-10T00:32:33;41.05;;;18.08;;
71038;SDS011;58692;43.212;27.908;2022-12-10T00:34:59;42.37;;;18.77;;
71038;SDS011;58692;43.212;27.908;2022-12-10T00:37:24;40.97;;;17.77;;
71038;SDS011;58692;43.212;27.908;2022-12-10T00:39:50;40.00;;;18.60;;
71038;SDS011;58692;43.212;27.908;2022-12-10T00:42:15;41.57;;;18.57;;
71038;SDS011;58692;43.212;27.908;2022-12-10T00:44:40;43.37;;;18.53;;
71038;SDS011;58692;43.212;27.908;2022-12-10T00:47:06;43.23;;;19.40;;
71038;SDS011;58692;43.212;27.908;2022-12-10T00:49:31;41.90;;;19.80;;
71038;SDS011;58692;43.212;27.908;2022-12-10T00:51:57;40.50;;;19.13;;
71038;SDS011;58692;43.212;27.908;2022-12-10T00:54:22;44.73;;;19.20;;
71038;SDS011;58692;43.212;27.908;2022-12-10T00:56:48;38.80;;;18.70;;
71038;SDS011;58692;43.212;27.908;2022-12-10T00:59:13;41.77;;;19.00;;
71038;SDS011;58692;43.212;27.908;2022-12-10T01:01:40;48.93;;;19.20;;
71038;SDS011;58692;43.212;27.908;2022-12-10T01:04:08;43.38;;;19.83;;
71038;SDS011;58692;43.212;27.908;2022-12-10T01:06:39;43.55;;;19.45;;
71038;SDS011;58692;43.212;27.908;2022-12-10T01:09:07;44.30;;;20.13;;
71038;SDS011;58692;43.212;27.908;2022-12-10T01:11:36;45.15;;;20.05;;
71038;SDS011;58692;43.212;27.908;2022-12-10T01:14:04;42.27;;;20.20;;
71038;SDS011;58692;43.212;27.908;2022-12-10T01:16:31;43.17;;;20.08;;
71038;SDS011;58692;43.212;27.908;2022-12-10T01:18:57;47.00;;;20.63;;
71038;SDS011;58692;43.212;27.908;2022-12-10T01:21:23;47.03;;;20.73;;
71038;SDS011;58692;43.212;27.908;2022-12-10T01:23:50;56.72;;;20.95;;
71038;SDS011;58692;43.212;27.908;2022-12-10T01:26:18;42.78;;;20.50;;
71038;SDS011;58692;43.212;27.908;2022-12-10T01:28:46;48.15;;;20.40;;
71038;SDS011;58692;43.212;27.908;2022-12-10T01:31:14;59.75;;;20.58;;
71038;SDS011;58692;43.212;27.908;2022-12-10T01:33:43;43.50;;;19.57;;
71038;SDS011;58692;43.212;27.908;2022-12-10T01:36:11;42.25;;;19.45;;
71038;SDS011;58692;43.212;27.908;2022-12-10T01:38:39;39.72;;;20.13;;
71038;SDS011;58692;43.212;27.908;2022-12-10T01:41:06;38.90;;;19.35;;
71038;SDS011;58692;43.212;27.908;2022-12-10T01:43:51;50.72;;;20.17;;
71038;SDS011;58692;43.212;27.908;2022-12-10T01:46:28;50.00;;;20.00;;
71038;SDS011;58692;43.212;27.908;2022-12-10T01:48:56;42.58;;;19.52;;
71038;SDS011;58692;43.212;27.908;2022-12-10T01:51:24;46.85;;;19.50;;
71038;SDS011;58692;43.212;27.908;2022-12-10T01:53:51;44.38;;;20.80;;
71038;SDS011;58692;43.212;27.908;2022-12-10T01:56:18;44.43;;;20.67;;
71038;SDS011;58692;43.212;27.908;2022-12-10T01:58:44;61.45;;;21.15;;
71038;SDS011;58692;43.212;27.908;2022-12-10T02:01:13;48.30;;;20.73;;
71038;SDS011;58692;43.212;27.908;2022-12-10T02:03:43;42.97;;;19.08;;
71038;SDS011;58692;43.212;27.908;2022-12-10T02:11:57;42.80;;;19.48;;
71038;SDS011;58692;43.212;27.908;2022-12-10T02:14:26;42.53;;;18.45;;
71038;SDS011;58692;43.212;27.908;2022-12-10T02:16:59;44.45;;;19.48;;
71038;SDS011;58692;43.212;27.908;2022-12-10T02:22:10;44.03;;;18.60;;
71038;SDS011;58692;43.212;27.908;2022-12-10T02:24:38;45.22;;;19.20;;
71038;SDS011;58692;43.212;27.908;2022-12-10T02:27:09;40.80;;;18.58;;
71038;SDS011;58692;43.212;27.908;2022-12-10T02:29:42;43.97;;;19.38;;
71038;SDS011;58692;43.212;27.908;2022-12-10T02:32:11;41.80;;;18.90;;
71038;SDS011;58692;43.212;27.908;2022-12-10T02:34:41;38.97;;;18.45;;
71038;SDS011;58692;43.212;27.908;2022-12-10T02:37:12;46.15;;;19.33;;
71038;SDS011;58692;43.212;27.908;2022-12-10T02:39:43;37.83;;;17.95;;
71038;SDS011;58692;43.212;27.908;2022-12-10T02:42:13;41.58;;;19.35;;
71038;SDS011;58692;43.212;27.908;2022-12-10T02:44:42;41.90;;;20.40;;
71038;SDS011;58692;43.212;27.908;2022-12-10T02:47:09;41.95;;;19.83;;
71038;SDS011;58692;43.212;27.908;2022-12-10T02:49:36;43.08;;;19.30;;
71038;SDS011;58692;43.212;27.908;2022-12-10T02:52:06;38.15;;;18.55;;
71038;SDS011;58692;43.212;27.908;2022-12-10T02:54:36;43.78;;;19.02;;
71038;SDS011;58692;43.212;27.908;2022-12-10T02:57:07;45.73;;;19.40;;
71038;SDS011;58692;43.212;27.908;2022-12-10T02:59:57;43.40;;;17.98;;
71038;SDS011;58692;43.212;27.908;2022-12-10T03:02:34;44.13;;;19.35;;
71038;SDS011;58692;43.212;27.908;2022-12-10T03:10:47;40.87;;;18.50;;
71038;SDS011;58692;43.212;27.908;2022-12-10T03:13:28;45.92;;;18.77;;
71038;SDS011;58692;43.212;27.908;2022-12-10T03:15:56;40.78;;;19.20;;
71038;SDS011;58692;43.212;27.908;2022-12-10T03:18:25;41.28;;;19.05;;
71038;SDS011;58692;43.212;27.908;2022-12-10T03:20:52;48.33;;;20.08;;
71038;SDS011;58692;43.212;27.908;2022-12-10T03:23:23;44.20;;;19.27;;
71038;SDS011;58692;43.212;27.908;2022-12-10T03:25:51;43.20;;;19.58;;
71038;SDS011;58692;43.212;27.908;2022-12-10T03:28:18;42.20;;;19.60;;
71038;SDS011;58692;43.212;27.908;2022-12-10T03:30:46;42.70;;;19.23;;
71038;SDS011;58692;43.212;27.908;2022-12-10T03:33:13;41.58;;;19.05;;
71038;SDS011;58692;43.212;27.908;2022-12-10T03:35:40;36.50;;;18.48;;
71038;SDS011;58692;43.212;27.908;2022-12-10T03:38:06;39.60;;;18.58;;
71038;SDS011;58692;43.212;27.908;2022-12-10T03:40:33;37.83;;;18.45;;
71038;SDS011;58692;43.212;27.908;2022-12-10T03:42:59;37.33;;;19.60;;
71038;SDS011;58692;43.212;27.908;2022-12-10T03:45:24;37.22;;;18.02;;
71038;SDS011;58692;43.212;27.908;2022-12-10T03:47:50;41.83;;;19.07;;
71038;SDS011;58692;43.212;27.908;2022-12-10T03:50:15;37.33;;;18.67;;
71038;SDS011;58692;43.212;27.908;2022-12-10T03:52:41;37.97;;;18.75;;
71038;SDS011;58692;43.212;27.908;2022-12-10T03:55:07;36.53;;;19.20;;
71038;SDS011;58692;43.212;27.908;2022-12-10T03:57:34;40.97;;;17.95;;
71038;SDS011;58692;43.212;27.908;2022-12-10T03:59:59;40.80;;;18.60;;
71038;SDS011;58692;43.212;27.908;2022-12-10T04:02:25;37.23;;;18.60;;
71038;SDS011;58692;43.212;27.908;2022-12-10T04:04:50;36.23;;;18.30;;
71038;SDS011;58692;43.212;27.908;2022-12-10T04:07:16;38.65;;;19.60;;
71038;SDS011;58692;43.212;27.908;2022-12-10T04:09:41;38.10;;;17.97;;
71038;SDS011;58692;43.212;27.908;2022-12-10T04:12:07;39.20;;;18.17;;
71038;SDS011;58692;43.212;27.908;2022-12-10T04:14:32;43.05;;;18.75;;
71038;SDS011;58692;43.212;27.908;2022-12-10T04:17:13;39.10;;;18.70;;
71038;SDS011;58692;43.212;27.908;2022-12-10T04:19:39;37.10;;;18.88;;
71038;SDS011;58692;43.212;27.908;2022-12-10T04:22:04;40.67;;;19.87;;
71038;SDS011;58692;43.212;27.908;2022-12-10T04:24:45;40.38;;;17.23;;
71038;SDS011;58692;43.212;27.908;2022-12-10T04:27:27;33.53;;;18.20;;
71038;SDS011;58692;43.212;27.908;2022-12-10T04:29:55;42.03;;;19.25;;
71038;SDS011;58692;43.212;27.908;2022-12-10T04:32:23;35.47;;;17.53;;
71038;SDS011;58692;43.212;27.908;2022-12-10T04:34:50;37.47;;;17.52;;
71038;SDS011;58692;43.212;27.908;2022-12-10T04:37:16;36.13;;;18.80;;
71038;SDS011;58692;43.212;27.908;2022-12-10T04:39:43;35.67;;;17.53;;
71038;SDS011;58692;43.212;27.908;2022-12-10T04:42:08;37.85;;;17.58;;
71038;SDS011;58692;43.212;27.908;2022-12-10T04:44:34;39.73;;;18.00;;
71038;SDS011;58692;43.212;27.908;2022-12-10T04:47:00;34.13;;;18.23;;
71038;SDS011;58692;43.212;27.908;2022-12-10T04:49:26;40.75;;;19.00;;
71038;SDS011;58692;43.212;27.908;2022-12-10T04:51:53;36.97;;;18.00;;
71038;SDS011;58692;43.212;27.908;2022-12-10T04:54:20;40.35;;;17.83;;
71038;SDS011;58692;43.212;27.908;2022-12-10T04:56:46;41.97;;;18.73;;
71038;SDS011;58692;43.212;27.908;2022-12-10T04:59:11;37.93;;;19.03;;
71038;SDS011;58692;43.212;27.908;2022-12-10T05:01:37;36.38;;;18.77;;
71038;SDS011;58692;43.212;27.908;2022-12-10T05:04:03;41.43;;;17.90;;
71038;SDS011;58692;43.212;27.908;2022-12-10T05:06:31;38.10;;;17.23;;
71038;SDS011;58692;43.212;27.908;2022-12-10T05:08:57;40.88;;;18.00;;
71038;SDS011;58692;43.212;27.908;2022-12-10T05:11:24;40.83;;;20.52;;
71038;SDS011;58692;43.212;27.908;2022-12-10T05:13:51;41.92;;;20.75;;
71038;SDS011;58692;43.212;27.908;2022-12-10T05:16:18;40.37;;;20.60;;
71038;SDS011;58692;43.212;27.908;2022-12-10T05:18:45;44.53;;;21.42;;
71038;SDS011;58692;43.212;27.908;2022-12-10T05:21:13;43.03;;;21.77;;
71038;SDS011;58692;43.212;27.908;2022-12-10T05:23:41;42.55;;;21.80;;
71038;SDS011;58692;43.212;27.908;2022-12-10T05:26:10;45.13;;;21.70;;
71038;SDS011;58692;43.212;27.908;2022-12-10T05:28:40;41.37;;;21.33;;
71038;SDS011;58692;43.212;27.908;2022-12-10T05:31:12;43.00;;;21.77;;
71038;SDS011;58692;43.212;27.908;2022-12-10T05:33:39;42.38;;;21.13;;
71038;SDS011;58692;43.212;27.908;2022-12-10T05:36:05;41.67;;;21.07;;
71038;SDS011;58692;43.212;27.908;2022-12-10T05:38:31;42.47;;;22.33;;
71038;SDS011;58692;43.212;27.908;2022-12-10T05:41:02;46.53;;;22.42;;
71038;SDS011;58692;43.212;27.908;2022-12-10T05:43:30;50.78;;;20.42;;
71038;SDS011;58692;43.212;27.908;2022-12-10T05:46:03;45.63;;;21.98;;
71038;SDS011;58692;43.212;27.908;2022-12-10T05:48:32;39.10;;;19.87;;
71038;SDS011;58692;43.212;27.908;2022-12-10T05:51:02;43.00;;;21.20;;
71038;SDS011;58692;43.212;27.908;2022-12-10T05:53:29;43.45;;;21.23;;
71038;SDS011;58692;43.212;27.908;2022-12-10T05:56:03;49.75;;;22.63;;
71038;SDS011;58692;43.212;27.908;2022-12-10T05:58:31;49.93;;;23.30;;
71038;SDS011;58692;43.212;27.908;2022-12-10T06:00:57;49.47;;;23.15;;
71038;SDS011;58692;43.212;27.908;2022-12-10T06:03:23;41.88;;;21.83;;
71038;SDS011;58692;43.212;27.908;2022-12-10T06:05:49;43.60;;;21.48;;
71038;SDS011;58692;43.212;27.908;2022-12-10T06:08:15;41.37;;;21.53;;
71038;SDS011;58692;43.212;27.908;2022-12-10T06:10:40;65.53;;;29.50;;
71038;SDS011;58692;43.212;27.908;2022-12-10T06:13:06;55.13;;;23.65;;
71038;SDS011;58692;43.212;27.908;2022-12-10T06:15:32;49.07;;;22.90;;
71038;SDS011;58692;43.212;27.908;2022-12-10T06:17:58;46.25;;;22.60;;
71038;SDS011;58692;43.212;27.908;2022-12-10T06:20:24;49.90;;;23.15;;
71038;SDS011;58692;43.212;27.908;2022-12-10T06:22:50;49.37;;;23.77;;
71038;SDS011;58692;43.212;27.908;2022-12-10T06:25:16;49.08;;;24.08;;
71038;SDS011;58692;43.212;27.908;2022-12-10T06:27:42;49.58;;;24.05;;
71038;SDS011;58692;43.212;27.908;2022-12-10T06:30:08;50.27;;;24.00;;
71038;SDS011;58692;43.212;27.908;2022-12-10T06:32:34;47.42;;;24.60;;
71038;SDS011;58692;43.212;27.908;2022-12-10T06:35:00;46.27;;;23.47;;
71038;SDS011;58692;43.212;27.908;2022-12-10T06:37:25;42.33;;;23.33;;
71038;SDS011;58692;43.212;27.908;2022-12-10T06:39:51;50.20;;;24.60;;
71038;SDS011;58692;43.212;27.908;2022-12-10T06:42:18;54.38;;;26.00;;
71038;SDS011;58692;43.212;27.908;2022-12-10T06:44:44;48.20;;;24.35;;
71038;SDS011;58692;43.212;27.908;2022-12-10T06:47:09;51.73;;;25.27;;
71038;SDS011;58692;43.212;27.908;2022-12-10T06:49:35;49.13;;;25.93;;
71038;SDS011;58692;43.212;27.908;2022-12-10T06:52:01;46.72;;;24.33;;
71038;SDS011;58692;43.212;27.908;2022-12-10T06:54:27;51.45;;;25.67;;
71038;SDS011;58692;43.212;27.908;2022-12-10T06:56:53;55.90;;;26.05;;
71038;SDS011;58692;43.212;27.908;2022-12-10T06:59:19;54.23;;;25.23;;
71038;SDS011;58692;43.212;27.908;2022-12-10T07:01:45;45.28;;;24.08;;
71038;SDS011;58692;43.212;27.908;2022-12-10T07:04:11;55.63;;;25.07;;
71038;SDS011;58692;43.212;27.908;2022-12-10T07:06:36;53.70;;;25.10;;
71038;SDS011;58692;43.212;27.908;2022-12-10T07:09:02;46.13;;;24.43;;
71038;SDS011;58692;43.212;27.908;2022-12-10T07:11:28;46.67;;;22.92;;
71038;SDS011;58692;43.212;27.908;2022-12-10T07:13:55;52.33;;;21.73;;
71038;SDS011;58692;43.212;27.908;2022-12-10T07:16:23;54.23;;;25.30;;
71038;SDS011;58692;43.212;27.908;2022-12-10T07:18:50;43.38;;;20.00;;
71038;SDS011;58692;43.212;27.908;2022-12-10T07:21:19;40.15;;;20.83;;
71038;SDS011;58692;43.212;27.908;2022-12-10T07:23:49;49.15;;;22.02;;
71038;SDS011;58692;43.212;27.908;2022-12-10T07:26:16;44.80;;;21.25;;
71038;SDS011;58692;43.212;27.908;2022-12-10T07:28:42;41.37;;;21.47;;
71038;SDS011;58692;43.212;27.908;2022-12-10T07:31:08;51.15;;;22.08;;
71038;SDS011;58692;43.212;27.908;2022-12-10T07:33:35;50.72;;;22.73;;
71038;SDS011;58692;43.212;27.908;2022-12-10T07:36:04;52.78;;;23.83;;
71038;SDS011;58692;43.212;27.908;2022-12-10T07:38:31;46.13;;;24.43;;
71038;SDS011;58692;43.212;27.908;2022-12-10T07:40:56;50.80;;;24.95;;
71038;SDS011;58692;43.212;27.908;2022-12-10T07:43:22;49.73;;;23.90;;
71038;SDS011;58692;43.212;27.908;2022-12-10T07:45:47;47.83;;;23.17;;
71038;SDS011;58692;43.212;27.908;2022-12-10T07:48:13;45.40;;;23.13;;
71038;SDS011;58692;43.212;27.908;2022-12-10T07:50:39;44.38;;;22.30;;
71038;SDS011;58692;43.212;27.908;2022-12-10T07:53:04;48.63;;;24.30;;
71038;SDS011;58692;43.212;27.908;2022-12-10T07:55:30;46.40;;;22.40;;
71038;SDS011;58692;43.212;27.908;2022-12-10T07:57:55;45.35;;;21.65;;
71038;SDS011;58692;43.212;27.908;2022-12-10T08:00:21;45.30;;;21.00;;
71038;SDS011;58692;43.212;27.908;2022-12-10T08:02:46;46.23;;;22.97;;
71038;SDS011;58692;43.212;27.908;2022-12-10T08:05:12;54.57;;;26.37;;
71038;SDS011;58692;43.212;27.908;2022-12-10T08:07:37;46.72;;;23.38;;
71038;SDS011;58692;43.212;27.908;2022-12-10T08:10:03;48.20;;;23.70;;
71038;SDS011;58692;43.212;27.908;2022-12-10T08:12:29;47.33;;;23.15;;
71038;SDS011;58692;43.212;27.908;2022-12-10T08:14:54;44.27;;;22.50;;
71038;SDS011;58692;43.212;27.908;2022-12-10T08:17:20;45.03;;;20.98;;
71038;SDS011;58692;43.212;27.908;2022-12-10T08:19:45;39.70;;;19.60;;
71038;SDS011;58692;43.212;27.908;2022-12-10T08:22:11;50.17;;;25.13;;
71038;SDS011;58692;43.212;27.908;2022-12-10T08:24:36;53.13;;;26.10;;
71038;SDS011;58692;43.212;27.908;2022-12-10T08:27:02;59.90;;;27.23;;
71038;SDS011;58692;43.212;27.908;2022-12-10T08:29:27;45.00;;;22.43;;
71038;SDS011;58692;43.212;27.908;2022-12-10T08:31:53;48.20;;;22.20;;
71038;SDS011;58692;43.212;27.908;2022-12-10T08:34:18;45.57;;;21.67;;
71038;SDS011;58692;43.212;27.908;2022-12-10T08:36:44;51.17;;;25.43;;
71038;SDS011;58692;43.212;27.908;2022-12-10T08:39:10;51.92;;;25.95;;
71038;SDS011;58692;43.212;27.908;2022-12-10T08:41:40;47.38;;;24.85;;
71038;SDS011;58692;43.212;27.908;2022-12-10T08:44:06;52.92;;;23.83;;
71038;SDS011;58692;43.212;27.908;2022-12-10T08:46:31;45.47;;;22.30;;
71038;SDS011;58692;43.212;27.908;2022-12-10T08:48:57;42.60;;;21.80;;
71038;SDS011;58692;43.212;27.908;2022-12-10T08:51:23;40.60;;;20.67;;
71038;SDS011;58692;43.212;27.908;2022-12-10T08:53:49;36.97;;;17.90;;
71038;SDS011;58692;43.212;27.908;2022-12-10T08:56:14;42.00;;;21.37;;
71038;SDS011;58692;43.212;27.908;2022-12-10T08:58:40;37.83;;;18.25;;
71038;SDS011;58692;43.212;27.908;2022-12-10T09:01:07;32.93;;;17.03;;
71038;SDS011;58692;43.212;27.908;2022-12-10T09:03:35;37.00;;;18.98;;
71038;SDS011;58692;43.212;27.908;2022-12-10T09:06:02;39.78;;;19.10;;
71038;SDS011;58692;43.212;27.908;2022-12-10T09:08:30;34.72;;;17.02;;
71038;SDS011;58692;43.212;27.908;2022-12-10T09:10:56;33.75;;;17.30;;
71038;SDS011;58692;43.212;27.908;2022-12-10T09:13:22;39.43;;;15.03;;
71038;SDS011;58692;43.212;27.908;2022-12-10T09:15:49;31.03;;;13.87;;
71038;SDS011;58692;43.212;27.908;2022-12-10T09:18:17;38.05;;;14.90;;
71038;SDS011;58692;43.212;27.908;2022-12-10T09:20:43;40.60;;;15.37;;
71038;SDS011;58692;43.212;27.908;2022-12-10T09:23:08;28.20;;;11.67;;
71038;SDS011;58692;43.212;27.908;2022-12-10T09:25:33;26.17;;;12.07;;
71038;SDS011;58692;43.212;27.908;2022-12-10T09:27:59;24.92;;;11.38;;
71038;SDS011;58692;43.212;27.908;2022-12-10T09:30:25;24.47;;;11.20;;
71038;SDS011;58692;43.212;27.908;2022-12-10T09:32:50;23.37;;;10.10;;
71038;SDS011;58692;43.212;27.908;2022-12-10T09:35:16;24.60;;;9.90;;
71038;SDS011;58692;43.212;27.908;2022-12-10T09:37:41;24.00;;;10.47;;
71038;SDS011;58692;43.212;27.908;2022-12-10T09:40:09;27.48;;;10.35;;
71038;SDS011;58692;43.212;27.908;2022-12-10T09:47:52;24.60;;;11.02;;
71038;SDS011;58692;43.212;27.908;2022-12-10T09:50:33;24.47;;;10.80;;
71038;SDS011;58692;43.212;27.908;2022-12-10T09:53:14;26.55;;;10.93;;
71038;SDS011;58692;43.212;27.908;2022-12-10T09:55:45;33.10;;;14.48;;
71038;SDS011;58692;43.212;27.908;2022-12-10T09:58:16;32.90;;;12.40;;
71038;SDS011;58692;43.212;27.908;2022-12-10T10:00:46;28.08;;;11.95;;
71038;SDS011;58692;43.212;27.908;2022-12-10T10:03:15;26.90;;;11.90;;
71038;SDS011;58692;43.212;27.908;2022-12-10T10:05:42;27.08;;;12.20;;
71038;SDS011;58692;43.212;27.908;2022-12-10T10:08:19;24.35;;;12.43;;
71038;SDS011;58692;43.212;27.908;2022-12-10T10:10:52;29.10;;;12.57;;
71038;SDS011;58692;43.212;27.908;2022-12-10T10:13:25;27.20;;;11.73;;
71038;SDS011;58692;43.212;27.908;2022-12-10T10:15:54;23.55;;;11.15;;
71038;SDS011;58692;43.212;27.908;2022-12-10T10:20:57;23.97;;;8.60;;
71038;SDS011;58692;43.212;27.908;2022-12-10T10:23:24;24.80;;;8.88;;
71038;SDS011;58692;43.212;27.908;2022-12-10T10:25:50;25.13;;;7.68;;
71038;SDS011;58692;43.212;27.908;2022-12-10T10:28:18;19.17;;;7.60;;
71038;SDS011;58692;43.212;27.908;2022-12-10T10:30:45;17.52;;;7.18;;
71038;SDS011;58692;43.212;27.908;2022-12-10T10:33:12;22.07;;;8.23;;
71038;SDS011;58692;43.212;27.908;2022-12-10T10:35:44;20.35;;;8.75;;
71038;SDS011;58692;43.212;27.908;2022-12-10T10:38:16;23.33;;;9.68;;
71038;SDS011;58692;43.212;27.908;2022-12-10T10:40:45;25.63;;;9.57;;
71038;SDS011;58692;43.212;27.908;2022-12-10T10:43:15;27.95;;;11.60;;
71038;SDS011;58692;43.212;27.908;2022-12-10T10:48:27;21.35;;;9.05;;
71038;SDS011;58692;43.212;27.908;2022-12-10T10:53:29;16.20;;;6.82;;
71038;SDS011;58692;43.212;27.908;2022-12-10T10:55:59;15.48;;;6.70;;
71038;SDS011;58692;43.212;27.908;2022-12-10T10:58:33;18.70;;;6.00;;
71038;SDS011;58692;43.212;27.908;2022-12-10T11:01:01;15.40;;;5.20;;
71038;SDS011;58692;43.212;27.908;2022-12-10T11:03:30;16.70;;;5.55;;
71038;SDS011;58692;43.212;27.908;2022-12-10T11:05:58;21.17;;;6.57;;
71038;SDS011;58692;43.212;27.908;2022-12-10T11:08:26;15.35;;;5.22;;
71038;SDS011;58692;43.212;27.908;2022-12-10T11:10:58;13.33;;;5.87;;
71038;SDS011;58692;43.212;27.908;2022-12-10T11:13:30;17.65;;;5.13;;
71038;SDS011;58692;43.212;27.908;2022-12-10T11:15:59;16.15;;;4.97;;
71038;SDS011;58692;43.212;27.908;2022-12-10T11:20:56;15.80;;;5.18;;
71038;SDS011;58692;43.212;27.908;2022-12-10T11:23:27;19.43;;;6.53;;
71038;SDS011;58692;43.212;27.908;2022-12-10T11:26:02;18.20;;;5.70;;
71038;SDS011;58692;43.212;27.908;2022-12-10T11:31:25;15.75;;;4.70;;
71038;SDS011;58692;43.212;27.908;2022-12-10T11:36:43;13.97;;;5.57;;
71038;SDS011;58692;43.212;27.908;2022-12-10T11:47:48;15.52;;;5.13;;
71038;SDS011;58692;43.212;27.908;2022-12-10T11:56:14;15.27;;;5.97;;
71038;SDS011;58692;43.212;27.908;2022-12-10T11:58:47;16.60;;;5.32;;
71038;SDS011;58692;43.212;27.908;2022-12-10T12:04:07;19.50;;;5.93;;
71038;SDS011;58692;43.212;27.908;2022-12-10T12:14:54;18.83;;;6.65;;
71038;SDS011;58692;43.212;27.908;2022-12-10T12:17:27;18.50;;;6.20;;
71038;SDS011;58692;43.212;27.908;2022-12-10T12:19:57;14.93;;;6.28;;
71038;SDS011;58692;43.212;27.908;2022-12-10T12:22:28;18.85;;;6.10;;
71038;SDS011;58692;43.212;27.908;2022-12-10T12:24:59;21.13;;;7.28;;
71038;SDS011;58692;43.212;27.908;2022-12-10T12:27:31;21.52;;;7.18;;
71038;SDS011;58692;43.212;27.908;2022-12-10T12:32:31;17.50;;;6.50;;
71038;SDS011;58692;43.212;27.908;2022-12-10T12:35:04;18.77;;;5.88;;
71038;SDS011;58692;43.212;27.908;2022-12-10T12:37:41;20.50;;;9.50;;
71038;SDS011;58692;43.212;27.908;2022-12-10T12:40:27;21.17;;;7.28;;
71038;SDS011;58692;43.212;27.908;2022-12-10T12:42:58;18.13;;;5.87;;
71038;SDS011;58692;43.212;27.908;2022-12-10T12:45:32;15.90;;;6.40;;
71038;SDS011;58692;43.212;27.908;2022-12-10T12:50:47;18.38;;;6.70;;
71038;SDS011;58692;43.212;27.908;2022-12-10T12:53:20;17.63;;;6.35;;
71038;SDS011;58692;43.212;27.908;2022-12-10T12:55:55;16.07;;;6.57;;
71038;SDS011;58692;43.212;27.908;2022-12-10T13:01:28;13.57;;;5.38;;
71038;SDS011;58692;43.212;27.908;2022-12-10T13:03:56;20.42;;;7.35;;
71038;SDS011;58692;43.212;27.908;2022-12-10T13:06:24;23.38;;;7.90;;
71038;SDS011;58692;43.212;27.908;2022-12-10T13:08:52;19.20;;;6.37;;
71038;SDS011;58692;43.212;27.908;2022-12-10T13:11:38;17.00;;;5.93;;
71038;SDS011;58692;43.212;27.908;2022-12-10T13:19:26;19.17;;;7.30;;
71038;SDS011;58692;43.212;27.908;2022-12-10T13:21:58;22.60;;;7.67;;
71038;SDS011;58692;43.212;27.908;2022-12-10T13:27:16;24.83;;;8.52;;
71038;SDS011;58692;43.212;27.908;2022-12-10T13:29:54;23.92;;;8.18;;
71038;SDS011;58692;43.212;27.908;2022-12-10T13:32:24;22.70;;;8.68;;
71038;SDS011;58692;43.212;27.908;2022-12-10T13:40:39;21.33;;;8.50;;
71038;SDS011;58692;43.212;27.908;2022-12-10T13:49:01;20.77;;;8.38;;
71038;SDS011;58692;43.212;27.908;2022-12-10T13:59:42;20.20;;;8.23;;
71038;SDS011;58692;43.212;27.908;2022-12-10T14:07:25;21.88;;;8.75;;
71038;SDS011;58692;43.212;27.908;2022-12-10T14:09:52;23.10;;;9.50;;
71038;SDS011;58692;43.212;27.908;2022-12-10T14:12:24;25.88;;;10.50;;
71038;SDS011;58692;43.212;27.908;2022-12-10T14:14:55;22.27;;;9.07;;
71038;SDS011;58692;43.212;27.908;2022-12-10T14:17:24;28.13;;;9.63;;
71038;SDS011;58692;43.212;27.908;2022-12-10T14:19:57;22.45;;;9.38;;
71038;SDS011;58692;43.212;27.908;2022-12-10T14:22:30;24.52;;;10.02;;
71038;SDS011;58692;43.212;27.908;2022-12-10T14:25:01;24.65;;;9.32;;
71038;SDS011;58692;43.212;27.908;2022-12-10T14:27:31;24.03;;;9.93;;
71038;SDS011;58692;43.212;27.908;2022-12-10T14:29:59;27.35;;;9.90;;
71038;SDS011;58692;43.212;27.908;2022-12-10T14:32:35;26.88;;;10.32;;
71038;SDS011;58692;43.212;27.908;2022-12-10T14:35:03;23.45;;;10.60;;
71038;SDS011;58692;43.212;27.908;2022-12-10T14:37:31;25.10;;;10.18;;
71038;SDS011;58692;43.212;27.908;2022-12-10T14:40:00;31.80;;;10.40;;
71038;SDS011;58692;43.212;27.908;2022-12-10T14:42:26;27.08;;;10.95;;
71038;SDS011;58692;43.212;27.908;2022-12-10T14:45:00;24.92;;;10.45;;
71038;SDS011;58692;43.212;27.908;2022-12-10T14:47:32;27.55;;;10.80;;
71038;SDS011;58692;43.212;27.908;2022-12-10T14:50:02;30.52;;;11.63;;
71038;SDS011;58692;43.212;27.908;2022-12-10T14:52:33;24.70;;;10.60;;
71038;SDS011;58692;43.212;27.908;2022-12-10T14:55:05;25.98;;;10.50;;
71038;SDS011;58692;43.212;27.908;2022-12-10T14:57:34;26.40;;;10.75;;
71038;SDS011;58692;43.212;27.908;2022-12-10T15:00:07;24.83;;;11.55;;
71038;SDS011;58692;43.212;27.908;2022-12-10T15:02:39;26.47;;;10.73;;
71038;SDS011;58692;43.212;27.908;2022-12-10T15:05:11;27.35;;;11.10;;
71038;SDS011;58692;43.212;27.908;2022-12-10T15:07:38;28.58;;;10.32;;
71038;SDS011;58692;43.212;27.908;2022-12-10T15:10:06;27.85;;;11.00;;
71038;SDS011;58692;43.212;27.908;2022-12-10T15:12:37;25.15;;;11.60;;
71038;SDS011;58692;43.212;27.908;2022-12-10T15:15:13;30.50;;;11.77;;
71038;SDS011;58692;43.212;27.908;2022-12-10T15:17:43;28.35;;;11.85;;
71038;SDS011;58692;43.212;27.908;2022-12-10T15:20:31;26.40;;;11.52;;
71038;SDS011;58692;43.212;27.908;2022-12-10T15:25:45;32.72;;;12.18;;
71038;SDS011;58692;43.212;27.908;2022-12-10T15:30:57;27.90;;;12.15;;
71038;SDS011;58692;43.212;27.908;2022-12-10T15:41:59;36.40;;;14.33;;
71038;SDS011;58692;43.212;27.908;2022-12-10T15:49:33;41.92;;;16.42;;
71038;SDS011;58692;43.212;27.908;2022-12-10T15:51:59;33.88;;;15.85;;
71038;SDS011;58692;43.212;27.908;2022-12-10T15:54:31;34.93;;;14.33;;
71038;SDS011;58692;43.212;27.908;2022-12-10T15:57:00;37.50;;;16.42;;
71038;SDS011;58692;43.212;27.908;2022-12-10T15:59:31;41.00;;;17.27;;
71038;SDS011;58692;43.212;27.908;2022-12-10T16:01:57;38.87;;;16.33;;
71038;SDS011;58692;43.212;27.908;2022-12-10T16:04:24;39.03;;;16.67;;
71038;SDS011;58692;43.212;27.908;2022-12-10T16:06:49;34.97;;;16.03;;
71038;SDS011;58692;43.212;27.908;2022-12-10T16:09:15;35.93;;;16.10;;
71038;SDS011;58692;43.212;27.908;2022-12-10T16:11:40;39.43;;;16.50;;
71038;SDS011;58692;43.212;27.908;2022-12-10T16:14:06;39.77;;;15.97;;
71038;SDS011;58692;43.212;27.908;2022-12-10T16:16:31;37.75;;;15.82;;
71038;SDS011;58692;43.212;27.908;2022-12-10T16:18:57;37.37;;;14.83;;